K5KTF-WX Weather Reports


Display with metric or nautical units.
time (UTC)temp
F
wind
direction
speed
MPH
gust
MPH
rain 1hr
in
rain 24hr
in
rain mn
in
humidity
%
barometer
mb
20210920161610 90 234 2.0 7.0 0.00 0.00 0.00 55 1013.4
20210920160042 89 204 2.0 7.0 0.00 0.00 0.00 58 1013.4
20210920154548 87 176 3.0 7.0 0.00 0.00 0.00 60 1013.4
20210920153045 86 194 1.0 9.0 0.00 0.00 0.00 64 1013.3
20210920151538 84 263 3.0 7.0 0.00 0.00 0.00 67 1013.2
20210920150058 83 174 2.0 6.0 0.00 0.00 0.00 70 1013.1
20210920144640 82 226 1.0 5.0 0.00 0.00 0.00 74 1013.0
20210920143036 81 215 1.0 5.0 0.00 0.00 0.00 76 1012.9
20210920141637 80 213 2.0 8.0 0.00 0.00 0.00 79 1012.7
20210920140029 79 129 1.0 5.0 0.00 0.00 0.00 80 1012.7
20210920134628 78 231 1.0 6.0 0.00 0.00 0.00 82 1012.5
20210920133051 77 227 1.0 6.0 0.00 0.00 0.00 84 1012.4
20210920131556 75 197 1.0 4.0 0.00 0.00 0.00 86 1012.2
20210920130036 74 231 0.0 3.0 0.00 0.00 0.00 87 1012.1
20210920124548 73 216 1.0 4.0 0.00 0.00 0.00 89 1012.0
20210920123118 72 246 2.0 6.0 0.00 0.00 0.00 88 1011.8
20210920121545 73 199 1.0 6.0 0.00 0.00 0.00 87 1011.8
20210920120046 73 205 0.0 5.0 0.00 0.00 0.00 86 1011.8
20210920114540 73 205 0.0 3.0 0.00 0.00 0.00 86 1011.7
20210920113051 73 153 1.0 5.0 0.00 0.00 0.00 85 1011.5
20210920111528 73 182 1.0 3.0 0.00 0.00 0.00 85 1011.4
20210920110038 74 157 0.0 4.0 0.00 0.00 0.00 83 1011.3
20210920104545 74 221 1.0 5.0 0.00 0.00 0.00 83 1011.3
20210920103100 74 183 1.0 5.0 0.00 0.00 0.00 83 1011.3
20210920101549 74 203 0.0 6.0 0.00 0.00 0.00 83 1011.3
20210920100057 74 132 0.0 6.0 0.00 0.00 0.00 83 1011.3
20210920094543 74 115 1.0 5.0 0.00 0.00 0.00 83 1011.3
20210920093035 75 107 1.0 7.0 0.00 0.00 0.00 83 1011.4
20210920091718 75 203 1.0 7.0 0.00 0.00 0.00 82 1011.4
20210920090113 75 217 2.0 7.0 0.00 0.00 0.00 83 1011.4
20210920084636 75 140 2.0 7.0 0.00 0.00 0.00 83 1011.4
20210920083036 76 210 2.0 5.0 0.00 0.00 0.00 82 1011.5
20210920081616 76 211 2.0 8.0 0.00 0.00 0.00 82 1011.6
20210920080036 76 195 2.0 5.0 0.00 0.00 0.00 81 1011.8
20210920074526 76 242 1.0 8.0 0.00 0.00 0.00 80 1011.9
20210920073131 76 151 1.0 6.0 0.00 0.00 0.00 81 1011.9
20210920071554 77 195 1.0 7.0 0.00 0.00 0.00 80 1011.9
20210920070124 77 0 1.0 6.0 0.00 0.00 0.00 78 1012.0
20210920064542 77 194 1.0 6.0 0.00 0.00 0.00 77 1012.1
20210920063050 78 183 1.0 6.0 0.00 0.00 0.00 75 1012.1
20210920061555 78 190 1.0 7.0 0.00 0.00 0.00 74 1012.2
20210920060125 78 175 0.0 6.0 0.00 0.00 0.00 72 1012.0
20210920054618 78 246 0.0 4.0 0.00 0.00 0.00 69 1012.0
20210920053031 78 221 1.0 4.0 0.00 0.00 0.00 67 1012.0
20210920051532 79 119 1.0 4.0 0.00 0.00 0.00 65 1011.9
20210920050118 78 0 0.0 3.0 0.00 0.00 0.00 66 1011.9
20210920044646 78 0 0.0 1.0 0.00 0.00 0.00 67 1011.9
20210920043103 79 0 0.0 0.0 0.00 0.00 0.00 65 1011.8
20210920041540 80 0 0.0 1.0 0.00 0.00 0.00 63 1011.8
20210920040048 81 0 0.0 1.0 0.00 0.00 0.00 62 1011.9
20210920034624 81 79 0.0 2.0 0.00 0.00 0.00 61 1011.8
20210920033031 82 61 1.0 2.0 0.00 0.00 0.00 60 1011.8
20210920031606 81 111 0.0 3.0 0.00 0.00 0.00 60 1011.7
20210920030106 81 55 2.0 3.0 0.00 0.00 0.00 59 1011.6
20210920024539 81 199 0.0 1.0 0.00 0.00 0.00 60 1011.3
20210920023043 82 0 0.0 2.0 0.00 0.00 0.00 58 1011.3
20210920021533 82 0 0.0 0.0 0.00 0.00 0.00 57 1011.2
20210920020033 83 170 0.0 1.0 0.00 0.00 0.00 55 1011.0
20210920014535 83 0 0.0 1.0 0.00 0.00 0.00 52 1010.8
20210920013143 85 200 0.0 1.0 0.00 0.00 0.00 50 1010.7
20210920011536 86 210 0.0 3.0 0.00 0.00 0.00 49 1010.5
20210920010112 87 0 0.0 1.0 0.00 0.00 0.00 46 1010.4
20210920004615 88 0 0.0 0.0 0.00 0.00 0.00 44 1010.2
20210920003038 90 0 0.0 0.0 0.00 0.00 0.00 41 1010.2
20210920001617 92 0 0.0 1.0 0.00 0.00 0.00 39 1010.2
20210920000039 95 0 0.0 1.0 0.00 0.00 0.00 37 1010.2
20210919234606 96 0 0.0 1.0 0.00 0.00 0.00 36 1010.2
20210919233039 95 0 0.0 2.0 0.00 0.00 0.00 36 1010.1
20210919231607 96 137 1.0 4.0 0.00 0.00 0.00 35 1010.1
20210919230055 97 94 1.0 2.0 0.00 0.00 0.00 34 1010.2
20210919224551 98 201 0.0 2.0 0.00 0.00 0.00 33 1010.3
20210919223124 97 186 1.0 7.0 0.00 0.00 0.00 34 1010.3
20210919221633 98 76 0.0 1.0 0.00 0.00 0.00 34 1010.3
20210919220044 98 208 1.0 3.0 0.00 0.00 0.00 33 1010.3
20210919214550 97 93 1.0 7.0 0.00 0.00 0.00 35 1010.5
20210919213028 97 250 1.0 3.0 0.00 0.00 0.00 36 1010.6
20210919211622 96 86 1.0 3.0 0.00 0.00 0.00 37 1010.8
20210919210044 96 327 0.0 2.0 0.00 0.00 0.00 38 1010.9
20210919204528 98 61 0.0 3.0 0.00 0.00 0.00 36 1011.1
20210919203036 96 340 3.0 8.0 0.00 0.00 0.00 35 1011.3
20210919201630 97 0 0.0 3.0 0.00 0.00 0.00 37 1011.6
20210919200030 97 97 2.0 6.0 0.00 0.00 0.00 38 1011.8
20210919194545 97 66 1.0 5.0 0.00 0.00 0.00 37 1012.2
20210919193050 96 136 1.0 7.0 0.00 0.00 0.00 38 1012.4
20210919191622 95 128 2.0 6.0 0.00 0.00 0.00 39 1012.8
20210919190052 95 62 1.0 3.0 0.00 0.00 0.00 39 1013.1
20210919184530 94 107 1.0 3.0 0.00 0.00 0.00 41 1013.4
20210919183057 92 302 0.0 4.0 0.00 0.00 0.00 43 1013.7
20210919181709 94 279 1.0 4.0 0.00 0.00 0.00 42 1014.1
20210919180112 93 93 1.0 2.0 0.00 0.00 0.00 45 1014.2
20210919174621 91 52 1.0 5.0 0.00 0.00 0.00 46 1014.5
20210919173029 93 299 1.0 4.0 0.00 0.00 0.00 46 1014.7
20210919171552 92 113 0.0 4.0 0.00 0.00 0.00 47 1015.0
20210919170152 91 84 1.0 3.0 0.00 0.00 0.00 49 1015.3
20210919164539 90 247 0.0 4.0 0.00 0.00 0.00 51 1015.5
20210919163102 90 131 1.0 4.0 0.00 0.00 0.00 50 1015.6